Observations for PALERMO POINT RAISI, Italy (LICJ)

LICJ 191250Z 05008KT 020V100 CAVOK 27/21 Q1014  
LICJ 191220Z 03007KT CAVOK 27/22 Q1014  
LICJ 191150Z 33008KT 310V010 CAVOK 28/23 Q1015  
LICJ 191120Z 03005KT CAVOK 28/22 Q1013  
LICJ 191050Z 24008KT CAVOK 29/20 Q1015  
LICJ 191020Z 01003KT 340V040 CAVOK 27/21 Q1015  
LICJ 190950Z 21006KT 160V240 9999 FEW030 30/20 Q1015
LICJ 190920Z 20009KT 160V220 9999 FEW030 28/20 Q1015
LICJ 190850Z 20008KT 170V240 9999 SCT076 28/20 Q1015
LICJ 190820Z 20010KT 170V230 9999 SCT076 27/19 Q1015
LICJ 190750Z 20009KT 160V220 CAVOK 28/20 Q1015  
LICJ 190720Z 20008KT CAVOK 27/20 Q1015  
LICJ 190650Z 23007KT CAVOK 25/21 Q1015  
LICJ 190620Z 11003KT 050V180 CAVOK 24/21 Q1014  
LICJ 190550Z VRB02KT CAVOK 23/21 Q1014  
LICJ 190520Z VRB02KT 9999 SCT076 23/20 Q1014
LICJ 190450Z VRB02KT CAVOK 23/21 Q1014  
LICJ 190420Z 15003KT 120V190 CAVOK 22/20 Q1014  
LICJ 190350Z 10003KT 070V220 CAVOK 23/20 Q1014  
LICJ 190320Z 12004KT 080V150 CAVOK 24/20 Q1014  
LICJ 190250Z 16006KT CAVOK 24/20 Q1014  
LICJ 182350Z 22004KT CAVOK 23/20 Q1015  
LICJ 182320Z 23005KT CAVOK 24/21 Q1015  
LICJ 182250Z 20003KT CAVOK 24/21 Q1015  
LICJ 182220Z 20004KT CAVOK 23/21 Q1016  
LICJ 182150Z VRB02KT CAVOK 23/20 Q1016  
LICJ 182120Z VRB01KT 9999 FEW030 24/20 Q1016
LICJ 182050Z 15003KT 9999 FEW035 24/20 Q1015
LICJ 182020Z 21003KT 160V230 9999 FEW030 24/21 Q1016
LICJ 181950Z 20003KT 140V230 9999 FEW035 25/21 Q1016
LICJ 181920Z 08004KT 070V130 9999 FEW030 25/20 Q1016
LICJ 181850Z 07007KT 9999 SCT035 25/20 Q1015
LICJ 181820Z 08008KT 9999 FEW035 25/20 Q1015
LICJ 181750Z 08006KT 9999 FEW030 25/20 Q1015
LICJ 181720Z 05004KT 9999 FEW035 25/20 Q1015
LICJ 181650Z 04005KT CAVOK 25/21 Q1015  
LICJ 181620Z 04004KT 9999 SCT076 25/20 Q1015
LICJ 181550Z 04004KT 9999 SCT076 26/19 Q1015
LICJ 181520Z 03004KT CAVOK 26/20 Q1015  
LICJ 181450Z 36003KT CAVOK 26/19 Q1015  
LICJ 181420Z VRB02KT CAVOK 26/19 Q1015  
LICJ 181350Z 02004KT 330V070 CAVOK 26/20 Q1016  
LICJ 181320Z 03004KT CAVOK 26/20 Q1016  
LICJ 181250Z 03006KT CAVOK 26/20 Q1015  
LICJ 181220Z 04009KT CAVOK 26/20 Q1015